createdAt,value
2024-02-13T00:01:18.396Z,15.77
2024-02-13T00:11:20.764Z,14.73
2024-02-13T00:21:22.811Z,19.05
2024-02-13T00:31:24.819Z,18.05
2024-02-13T00:41:26.993Z,17.15
2024-02-13T00:51:29.019Z,17.58
2024-02-13T01:01:31.163Z,17.98
2024-02-13T01:11:35.988Z,23.15
2024-02-13T01:21:38.031Z,19.60
2024-02-13T01:31:40.119Z,19.90
2024-02-13T01:41:42.132Z,21.50
2024-02-13T01:51:44.423Z,22.65
2024-02-13T02:01:47.434Z,16.92
2024-02-13T02:11:49.591Z,22.38
2024-02-13T02:21:51.699Z,18.45
2024-02-13T02:31:53.692Z,17.50
2024-02-13T02:41:55.735Z,22.25
2024-02-13T02:51:57.788Z,18.50
2024-02-13T03:01:59.862Z,13.75
2024-02-13T03:12:02.101Z,16.88
2024-02-13T03:22:04.187Z,27.65
2024-02-13T03:32:06.311Z,20.42
2024-02-13T03:42:08.384Z,22.58
2024-02-13T03:52:10.401Z,14.45
2024-02-13T04:02:12.583Z,18.65
2024-02-13T04:12:14.768Z,16.30
2024-02-13T04:22:16.771Z,21.02
2024-02-13T04:32:18.820Z,18.80
2024-02-13T04:42:34.497Z,19.35
2024-02-13T04:52:36.564Z,23.25
2024-02-13T05:02:38.590Z,18.58
2024-02-13T05:12:40.551Z,16.27
2024-02-13T05:22:42.542Z,19.65
2024-02-13T05:32:44.599Z,21.08
2024-02-13T05:42:46.670Z,25.35
2024-02-13T05:52:48.742Z,18.45
2024-02-13T06:02:51.329Z,23.75
2024-02-13T06:12:53.414Z,18.45
2024-02-13T06:22:55.374Z,24.80
2024-02-13T06:32:57.546Z,21.85
2024-02-13T06:42:59.598Z,24.05
2024-02-13T06:53:01.164Z,17.50
2024-02-13T07:03:03.319Z,28.80
2024-02-13T07:13:05.364Z,21.50
2024-02-13T07:23:07.484Z,18.45
2024-02-13T07:33:09.733Z,17.13
2024-02-13T07:43:11.914Z,13.75
2024-02-13T07:53:14.058Z,14.65
2024-02-13T08:03:16.135Z,10.32
2024-02-13T08:13:18.215Z,10.73
2024-02-13T08:23:20.378Z,12.35
2024-02-13T08:33:22.559Z,12.18
2024-02-13T08:43:24.858Z,9.82
2024-02-13T08:53:26.962Z,8.25
2024-02-13T09:03:29.021Z,8.65
2024-02-13T09:13:31.363Z,9.30
2024-02-13T09:23:34.260Z,7.82
2024-02-13T09:33:36.525Z,9.75
2024-02-13T09:43:44.125Z,5.25
2024-02-13T09:53:49.425Z,7.68
2024-02-13T10:03:51.776Z,8.15
2024-02-13T10:13:53.866Z,5.57
2024-02-13T10:24:09.478Z,9.68
2024-02-13T10:34:11.543Z,9.13
2024-02-13T10:44:16.237Z,12.10
2024-02-13T10:54:19.179Z,7.75
2024-02-13T11:04:21.768Z,7.30
2024-02-13T11:14:24.608Z,10.80
2024-02-13T11:24:26.312Z,7.65
2024-02-13T11:34:41.804Z,7.00
2024-02-13T11:44:44.264Z,5.78
2024-02-13T11:54:47.141Z,7.75
2024-02-13T12:04:49.189Z,7.40
2024-02-13T12:14:51.967Z,5.55
2024-02-13T12:24:53.571Z,7.47
2024-02-13T12:35:06.522Z,5.45
2024-02-13T12:45:09.276Z,9.40
2024-02-13T12:55:11.414Z,6.63
2024-02-13T13:05:13.489Z,5.72
2024-02-13T13:15:19.963Z,10.57
2024-02-13T13:25:29.932Z,6.10
2024-02-13T13:35:32.643Z,6.63
2024-02-13T13:45:34.845Z,10.50
2024-02-13T13:55:38.121Z,5.90
2024-02-13T14:05:39.855Z,6.40
2024-02-13T14:15:41.933Z,4.00
2024-02-13T14:25:43.556Z,6.95
2024-02-13T14:35:45.073Z,6.70
2024-02-13T14:45:46.546Z,3.47
2024-02-13T14:55:48.052Z,3.55
2024-02-13T15:05:49.641Z,4.93
2024-02-13T15:15:51.259Z,7.63
2024-02-13T15:25:52.688Z,7.40
2024-02-13T15:35:57.884Z,3.55
2024-02-13T15:45:59.450Z,7.93
2024-02-13T15:56:01.493Z,5.90
2024-02-13T16:06:04.081Z,6.50
2024-02-13T16:16:06.381Z,8.60
2024-02-13T16:26:11.723Z,8.30
2024-02-13T16:36:13.898Z,6.97
2024-02-13T16:46:16.201Z,8.32
2024-02-13T16:56:17.711Z,3.28
2024-02-13T17:06:19.899Z,5.25
2024-02-13T17:16:22.033Z,5.15
2024-02-13T17:26:23.668Z,6.93
2024-02-13T17:36:25.911Z,6.95
2024-02-13T17:46:27.876Z,5.60
2024-02-13T17:56:29.961Z,7.93
2024-02-13T18:06:32.267Z,8.23
2024-02-13T18:16:34.414Z,7.47
2024-02-13T18:26:36.773Z,9.73
2024-02-13T18:36:43.526Z,8.10
2024-02-13T18:46:46.629Z,7.13
2024-02-13T18:56:48.178Z,9.75
2024-02-13T19:06:50.440Z,7.03
2024-02-13T19:16:52.596Z,9.38
2024-02-13T19:26:54.701Z,5.82
2024-02-13T19:36:57.060Z,8.43
2024-02-13T19:46:59.111Z,10.63
2024-02-13T19:57:01.423Z,10.50
2024-02-13T20:07:04.333Z,10.52
2024-02-13T20:17:06.600Z,9.25
2024-02-13T20:27:08.821Z,11.15
2024-02-13T20:37:11.065Z,6.57
2024-02-13T20:47:13.320Z,7.78
2024-02-13T20:57:15.628Z,10.23
2024-02-13T21:07:17.852Z,5.97
2024-02-13T21:17:19.439Z,5.00
2024-02-13T21:27:21.535Z,5.50
2024-02-13T21:37:23.567Z,6.88
2024-02-13T21:47:25.748Z,5.65
2024-02-13T21:57:27.887Z,8.23
2024-02-13T22:07:30.010Z,7.13
2024-02-13T22:17:32.407Z,7.05
2024-02-13T22:27:34.630Z,6.20
2024-02-13T22:37:36.654Z,6.90
2024-02-13T22:47:41.575Z,7.30
2024-02-13T22:57:43.688Z,8.38
2024-02-13T23:07:45.769Z,7.10
2024-02-13T23:17:47.888Z,9.05
2024-02-13T23:27:50.012Z,6.60
2024-02-13T23:37:52.276Z,7.50
2024-02-13T23:47:54.447Z,7.25
2024-02-13T23:57:56.587Z,5.95
